• Join FlightAware (Why Join?)
  • Login
  • US Flag 
08:11AM EDT


 

Airport Tracker/Info


-or-


 

Live Flight TrackerFlight Track Log ✈ ASQ5025 ✈ 23-Apr-2013 ✈ KLGA - KBTV

Flight Track Log - Related Links

Times and Time Zones

All times are in EDT time to prevent confusion due to time zone crossing. See the ASQ5025 flight status page for this flight to view local times or setup timezone preferences in your user account.

Time Position Orientation Groundspeed Altitude Reporting Facility
EDT Latitude Longitude Course Direction KTS MPH feet Rate Location/Type
09:44AM 40.7667 -73.8500 70° East 156 180 1,500  Level New York TRACON
09:46AM 40.7922 -73.7558 70° East 146 168 7,400 2,640 Climbing Boston Center
09:47AM 40.8614 -73.7106 26° Northeast 213 245 10,500 2,520 Climbing Boston Center
09:48AM 40.9453 -73.6603 24° Northeast 282 325 12,500 1,860 Climbing Boston Center
09:49AM 41.0336 -73.5958 29° Northeast 316 364 14,300 1,800 Climbing Boston Center
09:50AM 41.1281 -73.5203 31° Northeast 377 434 16,200 1,800 Climbing Boston Center
09:51AM 41.2247 -73.4419 31° Northeast 396 456 17,900 1,380 Climbing Boston Center
09:52AM 41.3275 -73.3606 31° Northeast 422 486 19,000 1,260 Climbing Boston Center
09:53AM 41.4219 -73.2817 32° Northeast 432 497 20,500 1,620 Climbing Boston Center
09:54AM 41.5289 -73.1969 31° Northeast 437 503 22,300 1,680 Climbing Boston Center
09:55AM 41.6642 -73.2069 357° North 422 486 23,900 1,500 Climbing Boston Center
09:56AM 41.7933 -73.2197 356° North 438 504 25,300 1,380 Climbing Boston Center
09:57AM 41.9267 -73.2353 355° North 459 528 26,700 840 Climbing Boston Center
09:58AM 42.0619 -73.2483 356° North 474 545 27,000 120 Climbing Boston Center
09:59AM 42.2036 -73.2642 355° North 496 571 27,000  Level Boston Center
10:00AM 42.3181 -73.2767 355° North 507 583 27,000  Level Boston Center
10:01AM 42.4764 -73.2844 358° North 512 589 27,000  Level Boston Center
10:02AM 42.6283 -73.3092 353° North 512 589 27,000  Level Boston Center
10:03AM 42.7658 -73.3225 356° North 506 582 27,000  Level Boston Center
10:04AM 42.9053 -73.3386 355° North 501 577 27,000 -420 Level Boston Center
10:05AM 43.0428 -73.3406 359° North 496 571 26,200 -900 Descending Boston Center
10:06AM 43.1492 -73.3281 North 491 565 25,300 -1,020 Descending Boston Center
10:07AM 43.2869 -73.3100 North 477 549 24,200 -900 Descending Boston Center
10:08AM 43.4183 -73.2919 North 443 510 23,600 -1,500 Descending Boston Center
10:09AM 43.5394 -73.2764 North 430 495 21,300 -2,280 Descending Boston Center
10:10AM 43.6519 -73.2608 North 420 483 19,100 -2,100 Descending Boston Center
10:11AM 43.7647 -73.2478 North 407 468 17,200 -2,100 Descending Boston Center
10:12AM 43.8669 -73.2350 North 391 450 14,900 -2,340 Descending Boston Center
10:13AM 43.9689 -73.2506 354° North 369 425 12,600 -1,980 Descending Boston Center
10:14AM 44.0606 -73.2489 North 343 395 11,000 -1,680 Descending Boston Center
10:15AM 44.1400 -73.2183 15° North 311 358 9,300 -1,800 Descending Boston Center
10:16AM 44.2169 -73.2394 349° North 283 326 7,400 -1,800 Descending Boston Center
10:17AM 44.2856 -73.2608 347° North 283 326 5,700 -1,680 Descending Boston Center
10:18AM 44.3686 -73.2853 348° North 276 318 4,100 -1,020 Descending Boston Center
10:19AM 44.4353 -73.3036 349° North 266 306 3,700 -720 Descending Boston Center
10:20AM 44.4872 -73.2928 North 202 232 2,700 -840 Descending Boston Center
10:21AM 44.5189 -73.2494 44° Northeast 159 183 2,100 -780 Descending Boston Center
10:22AM 44.5067 -73.2056 111° Southeast 109 125 1,200 -900 Descending Boston Center